Terminal Aerodrome Forecast
Issued by NWS Wilmington, NC

Home | Current Version | Previous Version | Text Only | Print | Product List | Glossary On
Versions: 1 2 3 4 5 6 7 8 9 10 11 12 13 14 15 16 17 18 19 20
000
FTUS42 KILM 052340
TAFFLO
TAF
KFLO 052340Z 0600/0624 05005KT P6SM VCSH BKN100
     FM060300 05007KT 5SM RA OVC040
     FM060800 06010KT 2SM -RA BR OVC008
     FM061500 09008KT 3SM -RA BR OVC007
     FM062100 27007KT 4SM BR OVC007=

USA.gov is the U.S. government's official web portal to all federal, state and local government web resources and services.